createdAt,value
2022-10-17T00:00:19.799Z,13.80
2022-10-17T00:05:21.813Z,13.80
2022-10-17T00:10:24.069Z,13.90
2022-10-17T00:15:25.786Z,13.90
2022-10-17T00:20:27.643Z,14.00
2022-10-17T00:25:29.444Z,14.00
2022-10-17T00:30:32.759Z,14.00
2022-10-17T00:35:34.478Z,14.00
2022-10-17T00:40:36.194Z,14.00
2022-10-17T00:45:37.961Z,14.00
2022-10-17T00:50:42.814Z,14.00
2022-10-17T00:55:50.766Z,13.90
2022-10-17T01:00:52.535Z,14.00
2022-10-17T01:05:54.598Z,14.00
2022-10-17T01:11:13.526Z,14.10
2022-10-17T01:16:39.460Z,14.10
2022-10-17T01:21:52.041Z,14.10
2022-10-17T01:27:04.021Z,14.10
2022-10-17T01:32:23.015Z,14.00
2022-10-17T01:37:31.459Z,13.90
2022-10-17T01:42:41.436Z,13.90
2022-10-17T01:47:44.863Z,13.80
2022-10-17T01:52:56.990Z,13.80
2022-10-17T01:58:07.542Z,13.70
2022-10-17T02:03:15.346Z,13.70
2022-10-17T02:08:29.872Z,13.60
2022-10-17T02:13:50.427Z,13.60
2022-10-17T02:19:13.735Z,13.60
2022-10-17T02:24:44.977Z,13.50
2022-10-17T02:30:10.617Z,13.60
2022-10-17T02:35:15.596Z,13.60
2022-10-17T02:40:20.826Z,13.60
2022-10-17T02:45:24.979Z,13.70
2022-10-17T02:51:01.753Z,13.70
2022-10-17T02:56:12.427Z,13.80
2022-10-17T03:01:14.712Z,13.80
2022-10-17T03:06:16.584Z,13.70
2022-10-17T03:11:18.288Z,13.70
2022-10-17T03:16:20.080Z,13.70
2022-10-17T03:21:22.062Z,13.70
2022-10-17T03:26:24.011Z,13.70
2022-10-17T03:31:25.801Z,13.70
2022-10-17T03:36:28.240Z,13.80
2022-10-17T03:41:30.518Z,13.80
2022-10-17T03:46:33.111Z,13.80
2022-10-17T03:51:36.388Z,13.80
2022-10-17T03:56:43.908Z,13.80
2022-10-17T04:01:49.095Z,13.80
2022-10-17T04:06:51.184Z,13.80
2022-10-17T04:11:53.200Z,13.70
2022-10-17T04:16:58.330Z,13.70
2022-10-17T04:22:00.715Z,13.70
2022-10-17T04:27:04.263Z,13.60
2022-10-17T04:32:08.471Z,13.60
2022-10-17T04:37:30.904Z,13.60
2022-10-17T04:42:36.439Z,13.60
2022-10-17T04:47:38.809Z,13.60
2022-10-17T04:52:40.746Z,13.60
2022-10-17T04:57:43.880Z,13.50
2022-10-17T05:02:53.480Z,13.50
2022-10-17T05:07:55.749Z,13.50
2022-10-17T05:13:00.819Z,13.40
2022-10-17T05:18:06.718Z,13.40
2022-10-17T05:23:09.363Z,13.40
2022-10-17T05:28:15.211Z,13.40
2022-10-17T05:33:18.006Z,13.40
2022-10-17T05:38:20.368Z,13.40
2022-10-17T05:43:23.078Z,13.40
2022-10-17T05:48:25.407Z,13.40
2022-10-17T05:53:31.223Z,13.40
2022-10-17T05:58:49.934Z,13.40
2022-10-17T06:04:10.799Z,13.40
2022-10-17T06:09:13.682Z,13.40
2022-10-17T06:14:19.004Z,13.40
2022-10-17T06:19:23.066Z,13.50
2022-10-17T06:24:25.036Z,13.50
2022-10-17T06:29:28.225Z,13.60
2022-10-17T06:34:30.002Z,13.60
2022-10-17T06:39:33.918Z,13.70
2022-10-17T06:44:55.997Z,13.70
2022-10-17T06:50:12.834Z,13.80
2022-10-17T06:55:23.396Z,13.90
2022-10-17T07:00:51.609Z,13.90
2022-10-17T07:05:55.150Z,14.00
2022-10-17T07:10:57.986Z,14.10
2022-10-17T07:16:02.071Z,14.20
2022-10-17T07:21:06.745Z,14.30
2022-10-17T07:26:12.012Z,14.40
2022-10-17T07:31:17.729Z,14.50
2022-10-17T07:36:19.715Z,14.60
2022-10-17T07:41:22.129Z,14.70
2022-10-17T07:46:25.471Z,14.90
2022-10-17T07:51:27.907Z,15.00
2022-10-17T07:56:29.655Z,15.20
2022-10-17T08:01:31.377Z,15.40
2022-10-17T08:06:33.261Z,15.60
2022-10-17T08:11:36.465Z,15.70
2022-10-17T08:16:38.271Z,15.90
2022-10-17T08:21:41.309Z,16.10
2022-10-17T08:26:44.618Z,16.30
2022-10-17T08:31:49.911Z,16.50
2022-10-17T08:36:52.855Z,16.80
2022-10-17T08:42:18.034Z,16.90
2022-10-17T08:47:29.416Z,17.10
2022-10-17T08:52:48.468Z,17.40
2022-10-17T08:57:53.457Z,17.60
2022-10-17T09:03:13.795Z,17.70
2022-10-17T09:08:41.374Z,17.90
2022-10-17T09:13:59.355Z,18.20
2022-10-17T09:19:10.090Z,18.50
2022-10-17T09:24:20.804Z,18.70
2022-10-17T09:29:24.649Z,18.90
2022-10-17T09:34:29.030Z,19.10
2022-10-17T09:39:32.372Z,19.30
2022-10-17T09:44:41.369Z,19.50
2022-10-17T09:49:45.752Z,19.70
2022-10-17T09:55:01.834Z,19.90
2022-10-17T10:00:07.269Z,20.00
2022-10-17T10:05:20.098Z,20.20
2022-10-17T10:10:28.217Z,20.40
2022-10-17T10:15:34.049Z,20.60
2022-10-17T10:20:37.494Z,20.90
2022-10-17T10:25:50.004Z,21.20
2022-10-17T10:30:54.054Z,21.40
2022-10-17T10:36:03.234Z,21.60
2022-10-17T10:41:07.903Z,21.70
2022-10-17T10:46:28.527Z,21.70
2022-10-17T10:51:45.695Z,21.80
2022-10-17T10:56:53.395Z,22.00
2022-10-17T11:02:11.577Z,22.20
2022-10-17T11:07:39.039Z,22.30
2022-10-17T11:12:51.227Z,22.30
2022-10-17T11:18:16.200Z,22.50
2022-10-17T11:23:34.323Z,22.60
2022-10-17T11:28:36.136Z,22.80
2022-10-17T11:34:11.983Z,22.90
2022-10-17T11:39:40.902Z,22.90
2022-10-17T11:44:43.043Z,23.00
2022-10-17T11:49:53.513Z,23.20
2022-10-17T11:55:01.543Z,23.20
2022-10-17T12:00:51.225Z,23.30
2022-10-17T12:06:30.093Z,23.30
2022-10-17T12:11:44.550Z,23.40
2022-10-17T12:16:46.586Z,23.50
2022-10-17T12:22:18.877Z,23.70
2022-10-17T12:27:43.569Z,23.70
2022-10-17T12:33:07.189Z,23.70
2022-10-17T12:38:18.939Z,23.80
2022-10-17T12:43:30.045Z,23.90
2022-10-17T12:48:37.792Z,24.30
2022-10-17T12:54:09.369Z,24.60
2022-10-17T12:59:23.416Z,24.80
2022-10-17T13:04:26.500Z,24.90
2022-10-17T13:09:38.543Z,25.00
2022-10-17T13:14:42.907Z,25.10
2022-10-17T13:19:45.962Z,25.20
2022-10-17T13:24:49.178Z,25.20
2022-10-17T13:29:51.015Z,25.20
2022-10-17T13:35:10.301Z,25.20
2022-10-17T13:40:49.625Z,25.20
2022-10-17T13:45:55.122Z,25.50
2022-10-17T13:51:03.034Z,25.70
2022-10-17T13:56:27.931Z,25.80
2022-10-17T14:01:31.509Z,25.90
2022-10-17T14:06:46.205Z,25.80
2022-10-17T14:12:12.530Z,25.60
2022-10-17T14:17:19.708Z,25.20
2022-10-17T14:22:21.401Z,25.00
2022-10-17T14:27:42.382Z,24.80
2022-10-17T14:32:44.182Z,24.60
2022-10-17T14:37:49.518Z,24.50
2022-10-17T14:42:53.609Z,24.30
2022-10-17T14:47:57.787Z,24.30
2022-10-17T14:53:11.549Z,24.10
2022-10-17T14:58:19.028Z,24.00
2022-10-17T15:03:20.961Z,23.70
2022-10-17T15:08:24.159Z,23.60
2022-10-17T15:13:28.460Z,23.50
2022-10-17T15:18:32.299Z,23.40
2022-10-17T15:23:34.002Z,23.30
2022-10-17T15:28:35.773Z,23.30
2022-10-17T15:33:37.525Z,23.10
2022-10-17T15:38:39.273Z,23.00
2022-10-17T15:43:41.321Z,22.90
2022-10-17T15:48:43.430Z,22.80
2022-10-17T15:53:45.312Z,22.70
2022-10-17T15:58:47.146Z,22.50
2022-10-17T16:03:50.496Z,22.40
2022-10-17T16:08:52.400Z,22.30
2022-10-17T16:13:57.072Z,22.20
2022-10-17T16:18:58.847Z,22.10
2022-10-17T16:24:00.642Z,22.00
2022-10-17T16:29:04.620Z,21.90
2022-10-17T16:34:06.783Z,21.80
2022-10-17T16:39:08.730Z,21.60
2022-10-17T16:44:14.461Z,21.50
2022-10-17T16:49:18.166Z,21.40
2022-10-17T16:54:19.915Z,21.20
2022-10-17T16:59:23.113Z,21.10
2022-10-17T17:04:25.069Z,21.00
2022-10-17T17:09:27.139Z,20.80
2022-10-17T17:14:28.996Z,20.80
2022-10-17T17:19:30.760Z,20.60
2022-10-17T17:24:32.482Z,20.40
2022-10-17T17:29:34.360Z,20.30
2022-10-17T17:34:37.606Z,20.20
2022-10-17T17:39:39.691Z,20.20
2022-10-17T17:44:41.525Z,20.10
2022-10-17T17:49:43.407Z,19.90
2022-10-17T17:54:45.392Z,19.80
2022-10-17T17:59:48.821Z,19.70
2022-10-17T18:04:50.765Z,19.60
2022-10-17T18:09:52.662Z,19.50
2022-10-17T18:14:54.535Z,19.50
2022-10-17T18:19:56.304Z,19.40
2022-10-17T18:24:58.165Z,19.30
2022-10-17T18:30:00.351Z,19.30
2022-10-17T18:35:02.460Z,19.20
2022-10-17T18:40:05.568Z,19.10
2022-10-17T18:45:08.172Z,19.10
2022-10-17T18:50:10.095Z,18.90
2022-10-17T18:55:11.876Z,18.90
2022-10-17T19:00:13.969Z,18.70
2022-10-17T19:05:15.814Z,18.70
2022-10-17T19:10:17.935Z,18.60
2022-10-17T19:15:22.450Z,18.50
2022-10-17T19:20:26.971Z,18.50
2022-10-17T19:25:30.446Z,18.40
2022-10-17T19:30:32.238Z,18.40
2022-10-17T19:35:34.830Z,18.30
2022-10-17T19:40:40.657Z,18.20
2022-10-17T19:45:42.703Z,18.30
2022-10-17T19:50:44.853Z,18.20
2022-10-17T19:55:46.615Z,18.30
2022-10-17T20:00:57.195Z,18.30
2022-10-17T20:05:59.069Z,18.40
2022-10-17T20:11:12.645Z,18.50
2022-10-17T20:16:21.449Z,18.40
2022-10-17T20:21:27.303Z,18.30
2022-10-17T20:26:38.250Z,18.30
2022-10-17T20:31:43.139Z,18.20
2022-10-17T20:36:45.303Z,18.10
2022-10-17T20:41:47.540Z,17.90
2022-10-17T20:47:01.267Z,17.80
2022-10-17T20:52:03.965Z,17.70
2022-10-17T20:57:06.139Z,17.60
2022-10-17T21:02:11.939Z,17.60
2022-10-17T21:07:13.962Z,17.60
2022-10-17T21:12:25.853Z,17.50
2022-10-17T21:17:33.309Z,17.40
2022-10-17T21:22:35.255Z,17.30
2022-10-17T21:27:37.117Z,17.20
2022-10-17T21:32:51.044Z,17.10
2022-10-17T21:37:53.458Z,17.00
2022-10-17T21:42:55.124Z,16.90
2022-10-17T21:48:13.350Z,16.80
2022-10-17T21:53:15.515Z,16.70
2022-10-17T21:58:21.079Z,16.60
2022-10-17T22:03:22.814Z,16.60
2022-10-17T22:08:25.768Z,16.60
2022-10-17T22:13:27.671Z,16.60
2022-10-17T22:18:29.765Z,16.60
2022-10-17T22:23:31.766Z,16.60
2022-10-17T22:28:33.606Z,16.60
2022-10-17T22:33:36.899Z,16.70
2022-10-17T22:38:39.037Z,16.60
2022-10-17T22:43:40.878Z,16.60
2022-10-17T22:48:42.907Z,16.60
2022-10-17T22:53:44.715Z,16.50
2022-10-17T22:58:46.830Z,16.50
2022-10-17T23:03:48.963Z,16.50
2022-10-17T23:08:52.187Z,16.50
2022-10-17T23:13:53.979Z,16.60
2022-10-17T23:18:56.847Z,16.70
2022-10-17T23:23:59.689Z,16.80
2022-10-17T23:29:01.590Z,16.70
2022-10-17T23:34:03.776Z,16.80
2022-10-17T23:39:06.613Z,16.80
2022-10-17T23:44:10.435Z,16.80
2022-10-17T23:49:12.181Z,16.80
2022-10-17T23:54:13.905Z,16.80
2022-10-17T23:59:15.705Z,16.90
